Orofino, ID

9:21 PM PST on January 18, 2017 (GMT -0800)
MD3277 | | Change Station
Active Advisory: Winter Weather Advisory

Elev 1046 ft 46.48 °N, 116.27 °W | Updated 4 minutes ago

Overcast
Overcast
34.0 °F
Feels Like 34 °F
N
0.0
Wind Variable Wind from SE

Today
High -- | Low -- °F
--% Chance of Precip.
Yesterday
High -- | Low -- °F
Precip. -- in
Pressure 29.58 in
Visibility 10.0 miles
Clouds Overcast 10000 ft
Windchill 34 °F
Dew Point 33 °F
Humidity 95%
Rainfall 0.38 in
Snow Depth Not available.
7:22 AM 4:29 PM
Waning Gibbous, 57% visible
METAR KLWS 190456Z 11006KT 10SM OVC100 03/00 A2955 RMK AO2 RAE14 SLP017 P0000 T00280000
Pressure 29.58 in
Visibility 10.0 miles
Clouds Overcast 10000 ft
Windchill 34 °F
Dew Point 33 °F
Humidity 95%
Rainfall 0.38 in
Snow Depth Not available.
7:22 AM 4:29 PM
Waning Gibbous, 57% visible
METAR KLWS 190456Z 11006KT 10SM OVC100 03/00 A2955 RMK AO2 RAE14 SLP017 P0000 T00280000

Get Your Daily Forecast Email!

Thanks for signing up!

Be on the lookout for a verification email in your inbox.

You'll start receiving the daily forecast at 8 AM.

×

10-Day Weather Forecast

Almanac

Astronomy

Jan. 18, 2017 Rise Set
Actual Time
Civil Twilight
Nautical Twilight
Astronomical Twilight
Moon
Length of Visible Light
Length of Day
Tomorrow will be .
, % of the Moon is Illuminated

Today's Extremes

State Highs State Lows

Community

WunderPhotos

Upload Photos

1,962,540 photos uploaded!

WunderBlog® & News

Nearby

Air Quality

  Air Quality AQ Index Pollutant
Not available.

Snow Depth

Station Depth Elevation

Earthquake Activity

City Distance Mag. Time & Date
Minimum magnitude displayed is 2.5.

Coastal Water Temperatures

Place Temperature

Stations

Nearby Weather Stations

Station Location Temp. Windchill Dew Point Humidity Wind Precip. Elev Updated Type
                   

Watches & Warnings

Winter Weather Advisory
Issued: 8:53 PM PST Jan. 18, 2017 – National Weather Service

... Winter Weather Advisory remains in effect until 10 am PST
Thursday...

* impacts/timing: another round of rain/freezing rain/snow is
expected this evening and should continue through Thursday
morning. Any where from 0.25 to 0.5 inch for precipitation
will be possible overnight tonight and could cause additional
snow loading on roofs due to the added moisture.

Additionally, refreeze on roads is possible after sunset today
due to cold sub surface temperatures. Quickly changing and slick
driving conditions should be planned for this evening and through
the morning commute.

* Snow accumulations: 2 to 4 inches above 3500 feet.

* Locations impacted include: Elk River, Highway 11 Pierce to
Headquarters, Pierce, Camas Prairie, Grangeville and vicinity,
and Greer grade